createdAt,value
2023-05-09T00:00:23.274Z,94997.75
2023-05-09T00:02:49.636Z,95001.81
2023-05-09T00:05:16.166Z,95004.66
2023-05-09T00:07:42.895Z,94998.56
2023-05-09T00:10:09.225Z,94996.25
2023-05-09T00:12:35.545Z,94995.47
2023-05-09T00:15:01.904Z,94991.94
2023-05-09T00:17:28.258Z,94991.25
2023-05-09T00:19:54.597Z,94987.19
2023-05-09T00:22:20.900Z,94983.31
2023-05-09T00:24:47.221Z,94987.97
2023-05-09T00:27:13.534Z,94968.66
2023-05-09T00:29:39.856Z,94970.66
2023-05-09T00:32:06.298Z,94973.97
2023-05-09T00:34:32.632Z,94972.34
2023-05-09T00:36:58.949Z,94983.28
2023-05-09T00:39:25.272Z,94975.16
2023-05-09T00:41:51.606Z,94979.44
2023-05-09T00:44:17.953Z,94974.34
2023-05-09T00:46:44.283Z,94965.53
2023-05-09T00:49:10.615Z,94975.34
2023-05-09T00:51:36.937Z,94976.06
2023-05-09T00:54:03.266Z,94965.69
2023-05-09T00:56:29.600Z,94963.41
2023-05-09T00:58:55.924Z,94960.13
2023-05-09T01:01:22.259Z,94949.31
2023-05-09T01:03:48.700Z,94952.41
2023-05-09T01:06:15.082Z,94947.81
2023-05-09T01:08:41.409Z,94956.81
2023-05-09T01:11:07.714Z,94950.31
2023-05-09T01:13:34.022Z,94946.22
2023-05-09T01:16:00.361Z,94944.00
2023-05-09T01:18:26.719Z,94940.75
2023-05-09T01:20:53.049Z,94935.22
2023-05-09T01:23:19.351Z,94939.34
2023-05-09T01:25:45.681Z,94942.00
2023-05-09T01:28:12.001Z,94937.13
2023-05-09T01:30:38.317Z,94935.44
2023-05-09T01:33:04.742Z,94934.16
2023-05-09T01:35:31.100Z,94934.94
2023-05-09T01:37:57.466Z,94931.06
2023-05-09T01:40:23.770Z,94932.63
2023-05-09T01:42:50.087Z,94929.53
2023-05-09T01:45:16.619Z,94931.34
2023-05-09T01:47:43.277Z,94926.63
2023-05-09T01:50:09.644Z,94921.56
2023-05-09T01:52:35.958Z,94919.34
2023-05-09T01:55:02.319Z,94917.09
2023-05-09T01:57:28.702Z,94914.66
2023-05-09T01:59:55.008Z,94919.53
2023-05-09T02:02:21.356Z,94920.56
2023-05-09T02:04:47.703Z,94920.78
2023-05-09T02:07:14.042Z,94919.16
2023-05-09T02:09:40.362Z,94913.06
2023-05-09T02:12:06.665Z,94924.88
2023-05-09T02:14:32.980Z,94920.44
2023-05-09T02:16:59.351Z,94910.91
2023-05-09T02:19:25.721Z,94916.41
2023-05-09T02:21:52.058Z,94913.91
2023-05-09T02:24:18.394Z,94909.22
2023-05-09T02:26:44.714Z,94911.22
2023-05-09T02:29:11.033Z,94909.59
2023-05-09T02:31:37.389Z,94909.81
2023-05-09T02:34:03.755Z,94913.31
2023-05-09T02:36:30.080Z,94911.03
2023-05-09T02:38:56.410Z,94910.41
2023-05-09T02:41:22.714Z,94917.53
2023-05-09T02:43:49.044Z,94914.25
2023-05-09T02:46:15.435Z,94914.41
2023-05-09T02:48:41.784Z,94917.06
2023-05-09T02:51:08.134Z,94917.06
2023-05-09T02:53:34.456Z,94919.31
2023-05-09T02:56:00.796Z,94925.63
2023-05-09T02:58:27.103Z,94925.81
2023-05-09T03:00:53.417Z,94928.47
2023-05-09T03:03:19.829Z,94934.19
2023-05-09T03:05:46.204Z,94928.47
2023-05-09T03:08:12.522Z,94919.50
2023-05-09T03:10:38.851Z,94923.16
2023-05-09T03:13:05.234Z,94925.00
2023-05-09T03:15:31.553Z,94914.56
2023-05-09T03:17:57.896Z,94911.75
2023-05-09T03:20:24.244Z,94913.78
2023-05-09T03:22:50.555Z,94907.47
2023-05-09T03:25:17.113Z,94903.00
2023-05-09T03:27:43.713Z,94890.16
2023-05-09T03:30:10.047Z,94890.56
2023-05-09T03:32:36.436Z,94894.25
2023-05-09T03:35:02.797Z,94902.97
2023-05-09T03:37:29.119Z,94887.75
2023-05-09T03:39:55.440Z,94881.00
2023-05-09T03:42:21.760Z,94879.97
2023-05-09T03:44:48.075Z,94879.16
2023-05-09T03:47:14.393Z,94879.78
2023-05-09T03:49:40.732Z,94892.41
2023-05-09T03:52:07.060Z,94885.75
2023-05-09T03:54:33.362Z,94881.59
2023-05-09T03:56:59.694Z,94881.00
2023-05-09T03:59:26.016Z,94880.78
2023-05-09T04:01:52.380Z,94879.34
2023-05-09T04:04:18.705Z,94874.00
2023-05-09T04:06:45.030Z,94881.13
2023-05-09T04:09:11.344Z,94877.94
2023-05-09T04:11:37.680Z,94873.25
2023-05-09T04:14:04.013Z,94876.31
2023-05-09T04:16:30.338Z,94877.75
2023-05-09T04:18:56.667Z,94885.50
2023-05-09T04:21:22.992Z,94879.97
2023-05-09T04:23:49.318Z,94882.91
2023-05-09T04:26:15.667Z,94886.00
2023-05-09T04:28:42.010Z,94888.03
2023-05-09T04:31:08.497Z,94883.91
2023-05-09T04:33:34.879Z,94886.28
2023-05-09T04:36:01.192Z,94879.91
2023-05-09T04:38:27.508Z,94882.91
2023-05-09T04:40:53.836Z,94878.63
2023-05-09T04:43:20.136Z,94876.00
2023-05-09T04:45:46.447Z,94887.19
2023-05-09T04:48:12.770Z,94883.13
2023-05-09T04:50:39.087Z,94874.00
2023-05-09T04:53:05.401Z,94877.75
2023-05-09T04:55:31.697Z,94876.13
2023-05-09T04:57:57.994Z,94882.25
2023-05-09T05:00:24.315Z,94877.97
2023-05-09T05:02:50.667Z,94869.66
2023-05-09T05:05:17.039Z,94871.88
2023-05-09T05:07:43.353Z,94867.44
2023-05-09T05:10:09.661Z,94871.72
2023-05-09T05:12:35.966Z,94873.19
2023-05-09T05:15:02.290Z,94872.59
2023-05-09T05:17:28.635Z,94870.53
2023-05-09T05:19:54.962Z,94862.81
2023-05-09T05:22:21.274Z,94869.97
2023-05-09T05:24:47.616Z,94860.00
2023-05-09T05:27:13.924Z,94867.34
2023-05-09T05:29:40.235Z,94854.91
2023-05-09T05:32:06.589Z,94856.31
2023-05-09T05:34:32.909Z,94858.19
2023-05-09T05:36:59.214Z,94862.88
2023-05-09T05:39:25.533Z,94863.28
2023-05-09T05:41:51.856Z,94865.94
2023-05-09T05:44:18.182Z,94866.94
2023-05-09T05:46:44.505Z,94864.06
2023-05-09T05:49:10.825Z,94853.91
2023-05-09T05:51:37.137Z,94853.69
2023-05-09T05:54:03.475Z,94852.88
2023-05-09T05:56:29.797Z,94843.09
2023-05-09T05:58:56.118Z,94840.00
2023-05-09T06:01:22.434Z,94847.38
2023-05-09T06:03:48.809Z,94835.91
2023-05-09T06:06:15.178Z,94843.28
2023-05-09T06:08:41.507Z,94839.16
2023-05-09T06:11:07.828Z,94836.72
2023-05-09T06:13:34.152Z,94831.19
2023-05-09T06:16:15.156Z,94826.50
2023-05-09T06:18:45.448Z,94828.31
2023-05-09T06:21:11.779Z,94824.63
2023-05-09T06:23:40.521Z,94824.03
2023-05-09T06:26:11.009Z,94810.53
2023-05-09T06:28:37.358Z,94815.84
2023-05-09T06:31:03.679Z,94819.47
2023-05-09T06:33:30.048Z,94812.31
2023-05-09T06:35:56.369Z,94820.63
2023-05-09T06:38:22.692Z,94812.63
2023-05-09T06:40:49.033Z,94814.84
2023-05-09T06:43:15.348Z,94816.72
2023-05-09T06:45:41.673Z,94816.13
2023-05-09T06:48:08.072Z,94809.78
2023-05-09T06:50:34.400Z,94805.09
2023-05-09T06:53:00.708Z,94797.25
2023-05-09T06:55:27.035Z,94804.22
2023-05-09T06:57:53.369Z,94796.44
2023-05-09T07:00:19.698Z,94807.19
2023-05-09T07:02:46.052Z,94798.59
2023-05-09T07:05:12.499Z,94797.94
2023-05-09T07:07:38.977Z,94785.84
2023-05-09T07:10:11.496Z,94785.19
2023-05-09T07:12:38.516Z,94778.19
2023-05-09T07:15:04.906Z,94769.41
2023-05-09T07:17:31.273Z,94772.94
2023-05-09T07:19:57.605Z,94764.78
2023-05-09T07:22:23.953Z,94759.06
2023-05-09T07:24:50.277Z,94763.88
2023-05-09T07:27:16.627Z,94748.66
2023-05-09T07:29:42.942Z,94752.06
2023-05-09T07:32:09.303Z,94746.09
2023-05-09T07:34:35.640Z,94744.41
2023-05-09T07:37:01.965Z,94744.63
2023-05-09T07:39:28.298Z,94745.06
2023-05-09T07:41:54.615Z,94739.66
2023-05-09T07:44:20.989Z,94732.44
2023-05-09T07:46:47.306Z,94738.56
2023-05-09T07:49:13.612Z,94732.44
2023-05-09T07:51:39.934Z,94730.09
2023-05-09T07:54:06.343Z,94723.34
2023-05-09T07:56:32.653Z,94725.13
2023-05-09T07:58:58.957Z,94714.63
2023-05-09T08:01:25.274Z,94717.81
2023-05-09T08:03:51.726Z,94713.72
2023-05-09T08:06:18.113Z,94714.66
2023-05-09T08:08:44.447Z,94707.94
2023-05-09T08:11:10.765Z,94710.25
2023-05-09T08:13:37.070Z,94697.34
2023-05-09T08:16:03.421Z,94691.06
2023-05-09T08:18:29.795Z,94695.00
2023-05-09T08:20:56.129Z,94695.25
2023-05-09T08:23:22.474Z,94689.69
2023-05-09T08:25:48.800Z,94688.78
2023-05-09T08:28:15.261Z,94675.47
2023-05-09T08:30:41.621Z,94684.09
2023-05-09T08:33:08.020Z,94679.22
2023-05-09T08:35:34.350Z,94678.19
2023-05-09T08:38:00.667Z,94674.47
2023-05-09T08:40:27.244Z,94679.81
2023-05-09T08:42:53.614Z,94671.13
2023-05-09T08:45:19.916Z,94668.81
2023-05-09T08:47:46.277Z,94671.25
2023-05-09T08:50:12.702Z,94663.09
2023-05-09T08:52:39.092Z,94664.03
2023-05-09T08:55:05.413Z,94662.44
2023-05-09T08:57:31.766Z,94657.91
2023-05-09T08:59:58.076Z,94654.09
2023-05-09T09:02:24.421Z,94659.19
2023-05-09T09:04:50.781Z,94656.19
2023-05-09T09:07:17.131Z,94649.44
2023-05-09T09:09:43.472Z,94644.56
2023-05-09T09:12:09.856Z,94635.88
2023-05-09T09:14:36.160Z,94630.22
2023-05-09T09:17:02.486Z,94624.53
2023-05-09T09:19:28.799Z,94627.31
2023-05-09T09:21:55.122Z,94625.22
2023-05-09T09:24:21.453Z,94625.34
2023-05-09T09:26:47.778Z,94622.53
2023-05-09T09:29:14.104Z,94628.56
2023-05-09T09:31:40.444Z,94624.97
2023-05-09T09:34:06.782Z,94615.56
2023-05-09T09:36:33.126Z,94610.78
2023-05-09T09:38:59.457Z,94612.44
2023-05-09T09:41:25.780Z,94612.44
2023-05-09T09:43:52.104Z,94608.84
2023-05-09T09:46:18.495Z,94605.69
2023-05-09T09:48:44.924Z,94602.88
2023-05-09T09:51:11.375Z,94601.59
2023-05-09T09:53:37.769Z,94592.44
2023-05-09T09:56:04.073Z,94595.91
2023-05-09T09:58:30.376Z,94590.91
2023-05-09T10:00:56.755Z,94583.31
2023-05-09T10:03:23.145Z,94580.53
2023-05-09T10:05:49.515Z,94570.41
2023-05-09T10:08:15.849Z,94567.00
2023-05-09T10:10:42.154Z,94552.28
2023-05-09T10:13:08.503Z,94550.03
2023-05-09T10:15:49.423Z,94546.50
2023-05-09T10:18:19.194Z,94540.81
2023-05-09T10:20:45.621Z,94531.00
2023-05-09T10:23:11.961Z,94531.50
2023-05-09T10:25:38.320Z,94530.19
2023-05-09T10:28:04.655Z,94523.69
2023-05-09T10:30:31.434Z,94516.06
2023-05-09T10:33:00.199Z,94510.31
2023-05-09T10:35:26.573Z,94514.81
2023-05-09T10:37:52.895Z,94511.38
2023-05-09T10:40:19.215Z,94511.28
2023-05-09T10:42:45.526Z,94496.59
2023-05-09T10:45:11.862Z,94497.81
2023-05-09T10:47:38.218Z,94485.66
2023-05-09T10:50:04.573Z,94487.13
2023-05-09T10:52:30.882Z,94484.84
2023-05-09T10:54:57.205Z,94483.19
2023-05-09T10:57:23.529Z,94476.03
2023-05-09T10:59:49.837Z,94476.31
2023-05-09T11:02:16.164Z,94475.22
2023-05-09T11:04:42.467Z,94470.97
2023-05-09T11:07:08.785Z,94472.97
2023-05-09T11:09:35.088Z,94468.00
2023-05-09T11:12:01.422Z,94463.75
2023-05-09T11:14:27.746Z,94456.59
2023-05-09T11:16:54.054Z,94454.50
2023-05-09T11:19:20.359Z,94451.84
2023-05-09T11:21:46.696Z,94455.03
2023-05-09T11:24:13.008Z,94451.19
2023-05-09T11:26:39.342Z,94447.94
2023-05-09T11:29:05.659Z,94450.84
2023-05-09T11:31:32.062Z,94446.97
2023-05-09T11:33:58.412Z,94438.50
2023-05-09T11:36:24.727Z,94445.00
2023-05-09T11:38:51.056Z,94440.22
2023-05-09T11:41:17.464Z,94433.00
2023-05-09T11:43:43.772Z,94438.09
2023-05-09T11:46:10.185Z,94438.03
2023-05-09T11:48:36.590Z,94443.94
2023-05-09T11:51:02.902Z,94433.66
2023-05-09T11:53:29.230Z,94439.09
2023-05-09T11:55:55.585Z,94438.34
2023-05-09T11:58:21.890Z,94425.03
2023-05-09T12:00:48.205Z,94425.34
2023-05-09T12:03:14.646Z,94426.41
2023-05-09T12:05:41.098Z,94419.50
2023-05-09T12:08:07.414Z,94415.22
2023-05-09T12:10:33.756Z,94406.25
2023-05-09T12:13:00.123Z,94414.63
2023-05-09T12:15:26.465Z,94401.03
2023-05-09T12:17:52.799Z,94399.22
2023-05-09T12:20:19.128Z,94412.13
2023-05-09T12:22:45.468Z,94401.16
2023-05-09T12:25:11.866Z,94401.47
2023-05-09T12:27:38.229Z,94397.66
2023-05-09T12:30:04.565Z,94396.63
2023-05-09T12:32:30.912Z,94390.78
2023-05-09T12:34:57.273Z,94389.75
2023-05-09T12:37:23.596Z,94382.81
2023-05-09T12:39:49.966Z,94378.25
2023-05-09T12:42:16.281Z,94388.84
2023-05-09T12:44:42.600Z,94385.50
2023-05-09T12:47:09.024Z,94381.22
2023-05-09T12:49:35.374Z,94378.34
2023-05-09T12:52:04.471Z,94378.50
2023-05-09T12:54:31.343Z,94381.91
2023-05-09T12:56:57.649Z,94383.19
2023-05-09T12:59:24.022Z,94382.53
2023-05-09T13:01:50.388Z,94378.81
2023-05-09T13:04:16.731Z,94375.44
2023-05-09T13:06:43.058Z,94372.94
2023-05-09T13:09:09.384Z,94376.31
2023-05-09T13:11:35.719Z,94375.03
2023-05-09T13:14:02.040Z,94379.75
2023-05-09T13:16:28.385Z,94375.78
2023-05-09T13:18:54.772Z,94375.63
2023-05-09T13:21:21.136Z,94385.66
2023-05-09T13:23:47.461Z,94379.75
2023-05-09T13:26:13.797Z,94374.97
2023-05-09T13:28:40.095Z,94378.16
2023-05-09T13:31:06.478Z,94374.03
2023-05-09T13:33:32.908Z,94371.06
2023-05-09T13:35:59.258Z,94373.47
2023-05-09T13:38:25.617Z,94374.81
2023-05-09T13:40:51.969Z,94373.06
2023-05-09T13:43:18.321Z,94370.31
2023-05-09T13:45:44.634Z,94365.72
2023-05-09T13:48:11.091Z,94369.66
2023-05-09T13:50:37.431Z,94371.06
2023-05-09T13:53:03.768Z,94360.28
2023-05-09T13:55:30.072Z,94350.41
2023-05-09T13:57:56.383Z,94357.53
2023-05-09T14:00:22.710Z,94355.25
2023-05-09T14:02:49.131Z,94354.94
2023-05-09T14:05:15.475Z,94352.75
2023-05-09T14:07:41.782Z,94354.84
2023-05-09T14:10:15.841Z,94347.88
2023-05-09T14:12:42.316Z,94345.00
2023-05-09T14:15:08.642Z,94347.03
2023-05-09T14:17:35.059Z,94353.41
2023-05-09T14:20:01.420Z,94342.56
2023-05-09T14:22:27.761Z,94340.38
2023-05-09T14:24:54.093Z,94334.63
2023-05-09T14:27:20.428Z,94337.00
2023-05-09T14:29:46.828Z,94340.03
2023-05-09T14:32:13.160Z,94335.41
2023-05-09T14:34:39.485Z,94337.94
2023-05-09T14:37:05.794Z,94337.78
2023-05-09T14:39:32.129Z,94325.84
2023-05-09T14:41:58.457Z,94328.28
2023-05-09T14:44:24.784Z,94332.75
2023-05-09T14:46:51.141Z,94332.47
2023-05-09T14:49:17.517Z,94329.59
2023-05-09T14:51:43.868Z,94332.38
2023-05-09T14:54:10.177Z,94332.00
2023-05-09T14:56:36.508Z,94335.47
2023-05-09T14:59:02.817Z,94332.47
2023-05-09T15:01:29.188Z,94330.31
2023-05-09T15:03:55.561Z,94332.47
2023-05-09T15:06:21.885Z,94328.19
2023-05-09T15:08:48.189Z,94332.94
2023-05-09T15:11:14.494Z,94325.94
2023-05-09T15:13:40.817Z,94332.31
2023-05-09T15:16:07.258Z,94322.16
2023-05-09T15:18:33.609Z,94323.19
2023-05-09T15:20:59.916Z,94323.53
2023-05-09T15:23:26.276Z,94334.66
2023-05-09T15:25:52.594Z,94332.94
2023-05-09T15:28:18.919Z,94335.94
2023-05-09T15:30:45.303Z,94338.94
2023-05-09T15:33:11.766Z,94337.78
2023-05-09T15:35:38.118Z,94328.75
2023-05-09T15:38:04.432Z,94339.13
2023-05-09T15:40:30.812Z,94338.78
2023-05-09T15:42:57.152Z,94328.28
2023-05-09T15:45:23.494Z,94324.72
2023-05-09T15:47:49.830Z,94316.88
2023-05-09T15:50:16.347Z,94326.50
2023-05-09T15:52:43.015Z,94327.75
2023-05-09T15:55:09.383Z,94335.06
2023-05-09T15:57:35.819Z,94327.50
2023-05-09T16:00:02.201Z,94338.88
2023-05-09T16:02:28.646Z,94328.13
2023-05-09T16:04:55.025Z,94325.34
2023-05-09T16:07:21.348Z,94324.44
2023-05-09T16:09:47.679Z,94325.06
2023-05-09T16:12:14.002Z,94317.00
2023-05-09T16:14:40.389Z,94323.75
2023-05-09T16:17:06.713Z,94328.25
2023-05-09T16:19:35.737Z,94322.78
2023-05-09T16:22:02.257Z,94324.13
2023-05-09T16:24:28.558Z,94333.75
2023-05-09T16:26:54.881Z,94323.53
2023-05-09T16:29:21.237Z,94328.19
2023-05-09T16:31:47.630Z,94322.03
2023-05-09T16:34:13.968Z,94315.13
2023-05-09T16:36:40.282Z,94316.97
2023-05-09T16:39:06.585Z,94323.66
2023-05-09T16:41:32.889Z,94319.38
2023-05-09T16:43:59.199Z,94309.13
2023-05-09T16:46:25.624Z,94317.81
2023-05-09T16:48:52.109Z,94320.78
2023-05-09T16:51:18.493Z,94320.41
2023-05-09T16:53:44.839Z,94324.13
2023-05-09T16:56:11.146Z,94318.56
2023-05-09T16:58:37.468Z,94309.84
2023-05-09T17:01:03.849Z,94314.56
2023-05-09T17:03:30.169Z,94314.63
2023-05-09T17:05:56.470Z,94314.94
2023-05-09T17:08:22.785Z,94308.16
2023-05-09T17:10:49.117Z,94310.59
2023-05-09T17:13:15.467Z,94315.50
2023-05-09T17:15:42.220Z,94316.03
2023-05-09T17:18:08.563Z,94314.41
2023-05-09T17:20:34.912Z,94324.59
2023-05-09T17:23:01.244Z,94315.28
2023-05-09T17:25:27.569Z,94327.03
2023-05-09T17:27:53.881Z,94334.03
2023-05-09T17:30:22.792Z,94324.75
2023-05-09T17:32:49.622Z,94328.94
2023-05-09T17:35:15.991Z,94344.63
2023-05-09T17:37:42.327Z,94339.22
2023-05-09T17:40:08.672Z,94343.53
2023-05-09T17:42:35.005Z,94337.03
2023-05-09T17:45:01.376Z,94335.09
2023-05-09T17:47:27.710Z,94344.69
2023-05-09T17:49:54.041Z,94337.53
2023-05-09T17:52:20.345Z,94337.91
2023-05-09T17:54:46.652Z,94335.09
2023-05-09T17:57:12.973Z,94349.38
2023-05-09T17:59:39.284Z,94350.56
2023-05-09T18:02:05.671Z,94354.84
2023-05-09T18:04:32.004Z,94371.88
2023-05-09T18:06:58.336Z,94359.59
2023-05-09T18:09:24.642Z,94372.34
2023-05-09T18:11:50.963Z,94371.53
2023-05-09T18:14:17.291Z,94360.91
2023-05-09T18:16:43.605Z,94373.94
2023-05-09T18:19:09.946Z,94372.56
2023-05-09T18:21:36.261Z,94369.91
2023-05-09T18:24:02.582Z,94373.63
2023-05-09T18:26:28.885Z,94380.59
2023-05-09T18:28:55.197Z,94382.03
2023-05-09T18:31:22.593Z,94373.91
2023-05-09T18:33:48.939Z,94382.03
2023-05-09T18:36:15.262Z,94375.88
2023-05-09T18:38:41.566Z,94390.97
2023-05-09T18:41:07.866Z,94373.03
2023-05-09T18:43:34.171Z,94377.63
2023-05-09T18:46:00.496Z,94384.34
2023-05-09T18:48:26.816Z,94393.34
2023-05-09T18:50:53.117Z,94393.19
2023-05-09T18:53:19.418Z,94387.47
2023-05-09T18:55:45.757Z,94380.03
2023-05-09T18:58:12.073Z,94393.28
2023-05-09T19:00:38.407Z,94382.09
2023-05-09T19:03:04.748Z,94394.56
2023-05-09T19:05:31.050Z,94393.72
2023-05-09T19:07:57.375Z,94396.25
2023-05-09T19:10:23.681Z,94389.25
2023-05-09T19:12:50.216Z,94390.63
2023-05-09T19:15:16.608Z,94390.00
2023-05-09T19:17:42.996Z,94393.28
2023-05-09T19:20:09.360Z,94404.53
2023-05-09T19:22:35.706Z,94401.06
2023-05-09T19:25:02.029Z,94403.94
2023-05-09T19:27:28.333Z,94406.13
2023-05-09T19:29:54.643Z,94398.53
2023-05-09T19:32:20.950Z,94406.84
2023-05-09T19:34:47.249Z,94403.78
2023-05-09T19:37:13.558Z,94421.72
2023-05-09T19:39:39.887Z,94428.63
2023-05-09T19:42:06.191Z,94423.16
2023-05-09T19:44:32.493Z,94428.91
2023-05-09T19:46:58.805Z,94431.38
2023-05-09T19:49:25.114Z,94445.47
2023-05-09T19:51:51.412Z,94447.31
2023-05-09T19:54:17.725Z,94444.94
2023-05-09T19:56:44.055Z,94445.13
2023-05-09T19:59:10.364Z,94452.69
2023-05-09T20:01:36.725Z,94446.38
2023-05-09T20:04:03.178Z,94448.59
2023-05-09T20:06:29.520Z,94445.59
2023-05-09T20:08:55.838Z,94448.59
2023-05-09T20:11:22.170Z,94443.53
2023-05-09T20:13:48.477Z,94455.38
2023-05-09T20:16:14.791Z,94456.03
2023-05-09T20:18:41.105Z,94446.00
2023-05-09T20:21:07.402Z,94445.19
2023-05-09T20:23:33.728Z,94449.69
2023-05-09T20:26:00.038Z,94445.81
2023-05-09T20:28:26.357Z,94445.41
2023-05-09T20:30:52.684Z,94447.19
2023-05-09T20:33:19.022Z,94439.84
2023-05-09T20:35:45.342Z,94439.22
2023-05-09T20:38:11.672Z,94452.22
2023-05-09T20:40:37.981Z,94438.53
2023-05-09T20:43:04.279Z,94439.75
2023-05-09T20:45:30.601Z,94446.66
2023-05-09T20:47:56.962Z,94447.75
2023-05-09T20:50:23.356Z,94447.94
2023-05-09T20:52:49.650Z,94453.41
2023-05-09T20:55:15.991Z,94452.59
2023-05-09T20:57:42.297Z,94447.25
2023-05-09T21:00:08.604Z,94458.31
2023-05-09T21:02:34.970Z,94451.53
2023-05-09T21:05:01.346Z,94464.19
2023-05-09T21:07:27.643Z,94462.13
2023-05-09T21:09:53.949Z,94469.44
2023-05-09T21:12:20.271Z,94464.78
2023-05-09T21:14:46.569Z,94489.06
2023-05-09T21:17:12.929Z,94478.03
2023-05-09T21:19:39.257Z,94484.81
2023-05-09T21:22:05.579Z,94490.28
2023-05-09T21:24:31.912Z,94481.53
2023-05-09T21:26:58.215Z,94480.72
2023-05-09T21:29:24.527Z,94486.63
2023-05-09T21:31:50.850Z,94489.25
2023-05-09T21:34:17.154Z,94493.13
2023-05-09T21:36:43.458Z,94487.75
2023-05-09T21:39:09.866Z,94489.22
2023-05-09T21:41:36.182Z,94489.81
2023-05-09T21:44:02.485Z,94484.50
2023-05-09T21:46:28.914Z,94501.63
2023-05-09T21:48:55.296Z,94497.53
2023-05-09T21:51:21.619Z,94495.91
2023-05-09T21:53:47.946Z,94490.00
2023-05-09T21:56:14.258Z,94499.78
2023-05-09T21:58:40.584Z,94495.69
2023-05-09T22:01:06.904Z,94506.50
2023-05-09T22:03:33.282Z,94509.50
2023-05-09T22:05:59.619Z,94514.53
2023-05-09T22:08:25.943Z,94517.38
2023-05-09T22:10:52.272Z,94506.78
2023-05-09T22:13:18.656Z,94509.22
2023-05-09T22:15:45.033Z,94503.53
2023-05-09T22:18:11.357Z,94506.97
2023-05-09T22:20:37.671Z,94504.34
2023-05-09T22:23:03.990Z,94506.72
2023-05-09T22:25:30.309Z,94505.34
2023-05-09T22:27:56.651Z,94505.56
2023-05-09T22:30:22.977Z,94519.22
2023-05-09T22:32:49.326Z,94518.97
2023-05-09T22:35:15.650Z,94523.22
2023-05-09T22:37:41.951Z,94533.25
2023-05-09T22:40:08.316Z,94522.88
2023-05-09T22:42:34.656Z,94525.31
2023-05-09T22:45:00.990Z,94529.19
2023-05-09T22:47:27.394Z,94524.13
2023-05-09T22:49:53.744Z,94522.50
2023-05-09T22:52:20.072Z,94527.16
2023-05-09T22:54:46.433Z,94531.25
2023-05-09T22:57:12.749Z,94520.44
2023-05-09T22:59:39.050Z,94538.75
2023-05-09T23:02:05.388Z,94538.97
2023-05-09T23:04:31.709Z,94535.31
2023-05-09T23:06:58.031Z,94542.44
2023-05-09T23:09:24.361Z,94537.53
2023-05-09T23:11:50.701Z,94537.16
2023-05-09T23:14:17.049Z,94537.19
2023-05-09T23:16:43.361Z,94537.16
2023-05-09T23:19:09.689Z,94526.78
2023-05-09T23:21:36.039Z,94524.50
2023-05-09T23:24:02.386Z,94520.25
2023-05-09T23:26:28.701Z,94522.69
2023-05-09T23:28:55.011Z,94511.47
2023-05-09T23:31:21.360Z,94508.81
2023-05-09T23:33:47.704Z,94512.88
2023-05-09T23:36:14.037Z,94509.59
2023-05-09T23:38:40.333Z,94503.53
2023-05-09T23:41:06.672Z,94493.75
2023-05-09T23:43:32.996Z,94490.88
2023-05-09T23:45:59.306Z,94495.81
2023-05-09T23:48:25.616Z,94496.63
2023-05-09T23:50:51.927Z,94490.72
2023-05-09T23:53:18.241Z,94487.13
2023-05-09T23:55:44.589Z,94481.00
2023-05-09T23:58:10.923Z,94481.81
